Terminal Aerodrome Forecast
Issued by NWS

Home | Current Version | Previous Version | Text Only | Print | Product List | Glossary On
Versions: 1 2 3 4 5 6 7 8 9 10 11 12 13
000
FTUS42 TJSJ 032320
TAFJSJ
TAF
TJSJ 032320Z 0400/0424 10010KT P6SM FEW021 SCT029 SCT040
     FM041300 09018KT P6SM SCT250
     FM042300 08012KT P6SM FEW025 SCT040=

USA.gov is the U.S. government's official web portal to all federal, state and local government web resources and services.